createdAt,value
2018-08-16T00:01:13.010Z,100634.03
2018-08-16T00:03:43.765Z,100638.25
2018-08-16T00:06:14.609Z,100641.05
2018-08-16T00:08:45.473Z,100643.25
2018-08-16T00:11:16.386Z,100632.30
2018-08-16T00:13:47.086Z,100637.25
2018-08-16T00:16:17.937Z,100631.86
2018-08-16T00:18:48.772Z,100634.78
2018-08-16T00:21:19.570Z,100625.38
2018-08-16T00:23:50.333Z,100629.59
2018-08-16T00:26:21.047Z,100628.73
2018-08-16T00:28:51.799Z,100622.39
2018-08-16T00:31:22.524Z,100624.58
2018-08-16T00:33:53.427Z,100624.20
2018-08-16T00:36:24.101Z,100626.72
2018-08-16T00:38:54.813Z,100625.12
2018-08-16T00:41:25.608Z,100625.58
2018-08-16T00:43:56.368Z,100620.36
2018-08-16T00:46:27.081Z,100624.45
2018-08-16T00:48:57.846Z,100626.30
2018-08-16T00:51:28.628Z,100626.59
2018-08-16T00:53:59.415Z,100624.61
2018-08-16T00:56:30.151Z,100619.13
2018-08-16T00:59:00.925Z,100619.25
2018-08-16T01:01:31.839Z,100617.05
2018-08-16T01:04:02.604Z,100615.59
2018-08-16T01:06:33.365Z,100608.66
2018-08-16T01:09:05.225Z,100606.71
2018-08-16T01:11:35.931Z,100609.70
2018-08-16T01:14:08.373Z,100610.77
2018-08-16T01:16:39.211Z,100609.83
2018-08-16T01:19:10.030Z,100613.17
2018-08-16T01:21:40.870Z,100611.09
2018-08-16T01:24:11.629Z,100612.88
2018-08-16T01:26:42.401Z,100611.66
2018-08-16T01:29:13.212Z,100613.47
2018-08-16T01:31:44.282Z,100613.59
2018-08-16T01:34:15.108Z,100613.80
2018-08-16T01:36:45.822Z,100614.00
2018-08-16T01:39:16.619Z,100606.53
2018-08-16T01:41:47.272Z,100610.27
2018-08-16T01:44:18.159Z,100612.31
2018-08-16T01:46:48.833Z,100612.25
2018-08-16T01:49:30.047Z,100610.41
2018-08-16T01:52:01.094Z,100609.66
2018-08-16T01:54:32.057Z,100599.33
2018-08-16T01:57:03.444Z,100603.88
2018-08-16T01:59:34.151Z,100605.91
2018-08-16T02:02:04.998Z,100603.00
2018-08-16T02:04:35.764Z,100604.69
2018-08-16T02:07:06.569Z,100603.55
2018-08-16T02:09:37.411Z,100608.73
2018-08-16T02:12:08.450Z,100604.31
2018-08-16T02:14:39.181Z,100602.34
2018-08-16T02:17:09.921Z,100601.45
2018-08-16T02:19:40.707Z,100599.62
2018-08-16T02:22:11.489Z,100600.87
2018-08-16T02:24:42.176Z,100597.88
2018-08-16T02:27:12.979Z,100601.93
2018-08-16T02:29:43.733Z,100593.94
2018-08-16T02:32:14.493Z,100593.89
2018-08-16T02:34:45.266Z,100596.76
2018-08-16T02:37:16.156Z,100593.34
2018-08-16T02:39:46.888Z,100591.91
2018-08-16T02:42:17.878Z,100590.58
2018-08-16T02:44:48.655Z,100587.53
2018-08-16T02:47:19.561Z,100588.70
2018-08-16T02:49:50.298Z,100580.35
2018-08-16T02:52:21.137Z,100580.28
2018-08-16T02:54:51.898Z,100576.59
2018-08-16T02:57:22.676Z,100572.13
2018-08-16T02:59:53.400Z,100575.84
2018-08-16T03:02:24.147Z,100573.73
2018-08-16T03:04:54.945Z,100570.64
2018-08-16T03:07:25.766Z,100566.17
2018-08-16T03:09:56.462Z,100569.03
2018-08-16T03:12:27.216Z,100564.92
2018-08-16T03:14:57.895Z,100564.17
2018-08-16T03:17:28.661Z,100559.91
2018-08-16T03:19:59.344Z,100550.27
2018-08-16T03:22:30.032Z,100552.58
2018-08-16T03:25:00.748Z,100553.67
2018-08-16T03:27:31.455Z,100548.74
2018-08-16T03:30:02.219Z,100551.91
2018-08-16T03:32:32.922Z,100554.88
2018-08-16T03:35:03.740Z,100553.08
2018-08-16T03:37:34.492Z,100546.27
2018-08-16T03:40:06.024Z,100540.12
2018-08-16T03:42:36.888Z,100539.34
2018-08-16T03:45:08.364Z,100542.67
2018-08-16T03:47:39.276Z,100538.13
2018-08-16T03:50:10.162Z,100541.84
2018-08-16T03:52:40.873Z,100535.77
2018-08-16T03:55:11.602Z,100536.63
2018-08-16T03:57:42.415Z,100533.03
2018-08-16T04:00:13.143Z,100535.45
2018-08-16T04:02:43.832Z,100535.45
2018-08-16T04:05:14.559Z,100535.56
2018-08-16T04:07:45.309Z,100534.19
2018-08-16T04:10:16.129Z,100533.55
2018-08-16T04:12:46.949Z,100536.13
2018-08-16T04:15:17.669Z,100530.33
2018-08-16T04:17:48.467Z,100533.19
2018-08-16T04:20:19.217Z,100534.41
2018-08-16T04:22:50.021Z,100536.82
2018-08-16T04:25:20.807Z,100530.19
2018-08-16T04:27:51.663Z,100535.41
2018-08-16T04:30:22.503Z,100530.66
2018-08-16T04:32:53.248Z,100527.25
2018-08-16T04:35:24.047Z,100525.73
2018-08-16T04:37:54.882Z,100531.22
2018-08-16T04:40:25.725Z,100532.74
2018-08-16T04:42:56.491Z,100534.55
2018-08-16T04:45:27.326Z,100534.46
2018-08-16T04:47:58.112Z,100538.81
2018-08-16T04:50:28.923Z,100543.50
2018-08-16T04:52:59.660Z,100543.66
2018-08-16T04:55:30.344Z,100547.07
2018-08-16T04:58:01.031Z,100546.13
2018-08-16T05:00:31.758Z,100546.66
2018-08-16T05:03:02.436Z,100544.55
2018-08-16T05:05:33.090Z,100543.11
2018-08-16T05:08:03.940Z,100543.50
2018-08-16T05:10:34.723Z,100545.66
2018-08-16T05:13:05.553Z,100548.84
2018-08-16T05:15:36.371Z,100546.27
2018-08-16T05:18:07.517Z,100546.23
2018-08-16T05:20:38.243Z,100544.89
2018-08-16T05:23:09.032Z,100548.47
2018-08-16T05:25:39.791Z,100549.64
2018-08-16T05:28:10.653Z,100544.91
2018-08-16T05:30:41.404Z,100548.98
2018-08-16T05:33:12.157Z,100545.76
2018-08-16T05:35:42.933Z,100546.48
2018-08-16T05:38:13.672Z,100540.31
2018-08-16T05:40:44.478Z,100539.02
2018-08-16T05:43:15.374Z,100544.11
2018-08-16T05:45:46.148Z,100543.66
2018-08-16T05:48:16.964Z,100540.13
2018-08-16T05:50:47.950Z,100539.41
2018-08-16T05:53:18.782Z,100537.35
2018-08-16T05:55:49.675Z,100541.07
2018-08-16T05:58:20.515Z,100535.14
2018-08-16T06:00:51.321Z,100534.64
2018-08-16T06:03:22.243Z,100532.77
2018-08-16T06:05:53.076Z,100534.48
2018-08-16T06:08:23.955Z,100537.45
2018-08-16T06:10:54.848Z,100530.91
2018-08-16T06:13:25.873Z,100534.09
2018-08-16T06:15:56.720Z,100523.41
2018-08-16T06:18:27.463Z,100523.45
2018-08-16T06:20:58.164Z,100525.79
2018-08-16T06:23:28.832Z,100520.31
2018-08-16T06:25:59.549Z,100521.91
2018-08-16T06:28:30.354Z,100519.64
2018-08-16T06:31:01.169Z,100521.48
2018-08-16T06:33:32.206Z,100514.68
2018-08-16T06:36:02.872Z,100517.11
2018-08-16T06:38:33.664Z,100512.27
2018-08-16T06:41:04.430Z,100512.47
2018-08-16T06:43:35.164Z,100511.75
2018-08-16T06:46:05.894Z,100509.20
2018-08-16T06:48:36.599Z,100510.78
2018-08-16T06:51:07.372Z,100506.77
2018-08-16T06:53:38.100Z,100510.41
2018-08-16T06:56:08.843Z,100515.84
2018-08-16T06:58:39.591Z,100513.98
2018-08-16T07:01:10.547Z,100509.69
2018-08-16T07:03:41.322Z,100509.99
2018-08-16T07:06:12.104Z,100507.55
2018-08-16T07:08:42.890Z,100514.81
2018-08-16T07:11:13.600Z,100507.20
2018-08-16T07:13:44.253Z,100513.48
2018-08-16T07:16:14.940Z,100512.94
2018-08-16T07:18:45.725Z,100505.94
2018-08-16T07:21:16.438Z,100505.04
2018-08-16T07:23:47.040Z,100506.23
2018-08-16T07:26:23.486Z,100502.18
2018-08-16T07:28:54.089Z,100494.14
2018-08-16T07:31:24.865Z,100494.06
2018-08-16T07:33:55.549Z,100493.95
2018-08-16T07:36:26.317Z,100498.27
2018-08-16T07:38:57.115Z,100499.83
2018-08-16T07:41:28.352Z,100493.41
2018-08-16T07:44:00.169Z,100499.68
2018-08-16T07:46:30.901Z,100496.70
2018-08-16T07:49:01.541Z,100499.53
2018-08-16T07:51:32.409Z,100494.50
2018-08-16T07:54:02.920Z,100497.53
2018-08-16T07:56:33.529Z,100496.41
2018-08-16T07:59:04.368Z,100502.48
2018-08-16T08:01:35.075Z,100505.84
2018-08-16T08:04:05.875Z,100507.66
2018-08-16T08:06:39.522Z,100499.22
2018-08-16T08:09:10.934Z,100503.15
2018-08-16T08:11:41.475Z,100498.47
2018-08-16T08:14:12.184Z,100498.26
2018-08-16T08:16:43.101Z,100501.82
2018-08-16T08:19:13.768Z,100505.45
2018-08-16T08:21:44.490Z,100504.51
2018-08-16T08:24:15.231Z,100499.48
2018-08-16T08:26:45.938Z,100502.23
2018-08-16T08:29:16.581Z,100502.29
2018-08-16T08:31:47.524Z,100500.51
2018-08-16T08:34:18.280Z,100504.72
2018-08-16T08:37:05.811Z,100488.51
2018-08-16T08:39:36.525Z,100486.41
2018-08-16T08:42:07.180Z,100487.88
2018-08-16T08:44:37.967Z,100498.69
2018-08-16T08:47:08.726Z,100488.23
2018-08-16T08:49:39.429Z,100488.20
2018-08-16T08:52:10.133Z,100485.37
2018-08-16T08:54:58.166Z,100483.30
2018-08-16T08:57:45.563Z,100479.52
2018-08-16T09:00:16.348Z,100481.11
2018-08-16T09:02:47.073Z,100471.19
2018-08-16T09:05:17.760Z,100471.91
2018-08-16T09:07:48.445Z,100468.80
2018-08-16T09:11:05.435Z,100463.25
2018-08-16T09:13:53.901Z,100457.87
2018-08-16T09:16:31.036Z,100461.24
2018-08-16T09:19:01.965Z,100447.86
2018-08-16T09:21:33.307Z,100449.20
2018-08-16T09:24:04.135Z,100442.98
2018-08-16T09:26:43.111Z,100450.25
2018-08-16T09:30:40.087Z,100449.17
2018-08-16T09:33:27.476Z,100447.68
2018-08-16T09:35:58.166Z,100440.25
2018-08-16T09:38:28.884Z,100442.95
2018-08-16T09:40:59.638Z,100434.88
2018-08-16T09:43:30.335Z,100442.84
2018-08-16T09:47:16.543Z,100440.45
2018-08-16T09:49:50.318Z,100432.66
2018-08-16T09:52:21.872Z,100428.79
2018-08-16T09:54:52.637Z,100424.89
2018-08-16T09:57:23.365Z,100423.75
2018-08-16T09:59:54.024Z,100423.03
2018-08-16T10:02:24.717Z,100427.13
2018-08-16T10:04:55.391Z,100414.58
2018-08-16T10:07:26.079Z,100417.08
2018-08-16T10:09:56.718Z,100412.78
2018-08-16T10:12:27.522Z,100419.36
2018-08-16T10:14:58.329Z,100407.41
2018-08-16T10:17:29.132Z,100399.55
2018-08-16T10:19:59.836Z,100406.22
2018-08-16T10:22:30.492Z,100395.18
2018-08-16T10:25:01.239Z,100403.28
2018-08-16T10:27:32.008Z,100392.54
2018-08-16T10:30:02.749Z,100390.27
2018-08-16T10:32:33.506Z,100383.33
2018-08-16T10:35:04.761Z,100377.56
2018-08-16T10:37:36.037Z,100373.53
2018-08-16T10:40:06.810Z,100383.12
2018-08-16T10:42:38.768Z,100376.72
2018-08-16T10:45:09.422Z,100383.59
2018-08-16T10:47:40.190Z,100380.13
2018-08-16T10:50:11.068Z,100376.21
2018-08-16T10:52:41.962Z,100379.61
2018-08-16T10:55:12.717Z,100375.38
2018-08-16T10:57:43.473Z,100373.65
2018-08-16T11:00:14.308Z,100367.33
2018-08-16T11:02:45.136Z,100366.73
2018-08-16T11:05:16.086Z,100364.23
2018-08-16T11:07:46.844Z,100373.43
2018-08-16T11:10:17.667Z,100360.21
2018-08-16T11:12:48.351Z,100363.35
2018-08-16T11:15:19.164Z,100363.96
2018-08-16T11:17:50.002Z,100361.50
2018-08-16T11:20:20.702Z,100352.02
2018-08-16T11:22:51.384Z,100356.58
2018-08-16T11:25:22.186Z,100354.08
2018-08-16T11:27:53.892Z,100347.34
2018-08-16T11:30:24.648Z,100352.70
2018-08-16T11:32:55.709Z,100355.13
2018-08-16T11:35:26.432Z,100354.42
2018-08-16T11:37:57.721Z,100355.20
2018-08-16T11:40:28.356Z,100352.58
2018-08-16T11:43:00.021Z,100348.42
2018-08-16T11:45:30.729Z,100347.55
2018-08-16T11:48:01.424Z,100339.20
2018-08-16T11:50:32.191Z,100335.39
2018-08-16T11:53:02.928Z,100330.16
2018-08-16T11:55:33.605Z,100330.30
2018-08-16T11:58:04.277Z,100320.01
2018-08-16T12:00:35.019Z,100322.89
2018-08-16T12:03:06.207Z,100321.56
2018-08-16T12:05:36.924Z,100321.48
2018-08-16T12:08:07.720Z,100335.91
2018-08-16T12:10:38.524Z,100329.31
2018-08-16T12:13:09.344Z,100319.69
2018-08-16T12:15:40.061Z,100320.06
2018-08-16T12:18:11.085Z,100313.58
2018-08-16T12:20:41.808Z,100310.89
2018-08-16T12:23:13.514Z,100306.03
2018-08-16T12:25:44.289Z,100319.63
2018-08-16T12:28:15.711Z,100305.95
2018-08-16T12:30:46.725Z,100305.98
2018-08-16T12:33:17.475Z,100300.69
2018-08-16T12:35:48.244Z,100298.20
2018-08-16T12:38:18.909Z,100296.30
2018-08-16T12:40:52.341Z,100293.31
2018-08-16T12:43:26.568Z,100290.35
2018-08-16T12:45:59.099Z,100290.73
2018-08-16T12:48:29.881Z,100280.00
2018-08-16T12:51:00.568Z,100284.98
2018-08-16T12:53:31.390Z,100270.81
2018-08-16T12:56:02.132Z,100268.75
2018-08-16T12:58:32.989Z,100262.13
2018-08-16T13:01:03.711Z,100265.77
2018-08-16T13:03:34.415Z,100261.33
2018-08-16T13:06:05.257Z,100252.02
2018-08-16T13:08:35.988Z,100252.58
2018-08-16T13:11:07.300Z,100251.84
2018-08-16T13:13:38.103Z,100257.52
2018-08-16T13:16:08.821Z,100255.53
2018-08-16T13:18:39.640Z,100252.70
2018-08-16T13:21:10.773Z,100250.92
2018-08-16T13:23:42.391Z,100248.79
2018-08-16T13:26:15.418Z,100256.16
2018-08-16T13:28:46.164Z,100246.58
2018-08-16T13:31:17.530Z,100246.12
2018-08-16T13:33:48.388Z,100252.22
2018-08-16T13:36:19.105Z,100240.75
2018-08-16T13:38:49.926Z,100235.75
2018-08-16T13:41:21.446Z,100236.09
2018-08-16T13:43:51.368Z,100241.27
2018-08-16T13:46:22.156Z,100239.91
2018-08-16T13:48:52.992Z,100238.55
2018-08-16T13:51:23.652Z,100236.30
2018-08-16T13:53:54.401Z,100238.11
2018-08-16T13:56:25.164Z,100238.89
2018-08-16T13:58:56.012Z,100240.11
2018-08-16T14:01:26.729Z,100233.03
2018-08-16T14:03:57.635Z,100234.88
2018-08-16T14:06:28.382Z,100223.94
2018-08-16T14:08:59.045Z,100226.45
2018-08-16T14:11:29.698Z,100230.36
2018-08-16T14:14:19.427Z,100218.20
2018-08-16T14:16:55.431Z,100229.38
2018-08-16T14:19:26.172Z,100216.52
2018-08-16T14:21:56.934Z,100223.36
2018-08-16T14:24:27.675Z,100220.16
2018-08-16T14:26:58.404Z,100216.56
2018-08-16T14:29:29.345Z,100213.16
2018-08-16T14:32:00.209Z,100208.57
2018-08-16T14:34:30.949Z,100206.42
2018-08-16T14:37:01.672Z,100203.75
2018-08-16T14:39:32.496Z,100202.72
2018-08-16T14:42:03.374Z,100208.03
2018-08-16T14:44:34.226Z,100202.98
2018-08-16T14:47:05.149Z,100205.39
2018-08-16T14:49:35.865Z,100200.23
2018-08-16T14:52:06.711Z,100192.55
2018-08-16T14:54:37.416Z,100201.28
2018-08-16T14:57:08.857Z,100199.53
2018-08-16T14:59:39.613Z,100203.45
2018-08-16T15:02:10.357Z,100198.38
2018-08-16T15:04:41.064Z,100200.88
2018-08-16T15:07:11.761Z,100200.05
2018-08-16T15:09:42.435Z,100201.33
2018-08-16T15:12:13.266Z,100200.17
2018-08-16T15:14:44.269Z,100199.05
2018-08-16T15:17:16.289Z,100199.87
2018-08-16T15:19:47.070Z,100195.92
2018-08-16T15:22:18.448Z,100203.30
2018-08-16T15:24:49.304Z,100198.55
2018-08-16T15:27:19.957Z,100198.12
2018-08-16T15:29:50.833Z,100196.83
2018-08-16T15:32:21.554Z,100191.92
2018-08-16T15:34:52.790Z,100195.46
2018-08-16T15:37:23.864Z,100189.06
2018-08-16T15:39:54.591Z,100186.48
2018-08-16T15:42:26.230Z,100188.63
2018-08-16T15:44:56.934Z,100190.45
2018-08-16T15:47:27.698Z,100189.68
2018-08-16T15:49:58.459Z,100192.31
2018-08-16T15:52:29.151Z,100184.27
2018-08-16T15:54:59.797Z,100185.56
2018-08-16T15:57:30.505Z,100178.11
2018-08-16T16:00:02.058Z,100179.25
2018-08-16T16:02:34.315Z,100174.92
2018-08-16T16:05:05.079Z,100172.91
2018-08-16T16:07:35.825Z,100170.78
2018-08-16T16:10:07.208Z,100174.45
2018-08-16T16:12:37.911Z,100167.12
2018-08-16T16:15:10.469Z,100166.22
2018-08-16T16:17:41.188Z,100168.09
2018-08-16T16:20:11.900Z,100166.34
2018-08-16T16:22:42.618Z,100163.11
2018-08-16T16:25:13.287Z,100166.72
2018-08-16T16:27:43.973Z,100164.48
2018-08-16T16:30:15.751Z,100163.35
2018-08-16T16:32:46.453Z,100163.73
2018-08-16T16:35:17.339Z,100159.00
2018-08-16T16:37:48.018Z,100156.27
2018-08-16T16:40:18.730Z,100155.70
2018-08-16T16:42:49.513Z,100153.06
2018-08-16T16:45:20.189Z,100144.92
2018-08-16T16:47:50.959Z,100143.84
2018-08-16T16:50:21.654Z,100148.14
2018-08-16T16:52:52.454Z,100140.62
2018-08-16T16:55:23.118Z,100144.27
2018-08-16T16:57:53.846Z,100146.16
2018-08-16T17:00:25.486Z,100142.97
2018-08-16T17:02:56.162Z,100147.14
2018-08-16T17:05:32.628Z,100144.09
2018-08-16T17:08:03.469Z,100138.38
2018-08-16T17:10:34.367Z,100134.36
2018-08-16T17:13:05.325Z,100147.43
2018-08-16T17:15:36.106Z,100144.16
2018-08-16T17:18:10.070Z,100141.50
2018-08-16T17:20:41.123Z,100141.71
2018-08-16T17:23:12.006Z,100138.02
2018-08-16T17:25:42.917Z,100136.20
2018-08-16T17:28:14.321Z,100137.09
2018-08-16T17:30:45.167Z,100126.81
2018-08-16T17:33:16.017Z,100134.25
2018-08-16T17:35:46.790Z,100128.91
2018-08-16T17:38:17.614Z,100134.18
2018-08-16T17:40:49.380Z,100137.97
2018-08-16T17:43:30.053Z,100133.11
2018-08-16T17:46:07.678Z,100138.75
2018-08-16T17:48:38.840Z,100133.06
2018-08-16T17:51:09.662Z,100134.45
2018-08-16T17:53:40.632Z,100140.75
2018-08-16T17:56:11.510Z,100139.09
2018-08-16T17:58:42.352Z,100137.83
2018-08-16T18:01:13.191Z,100133.48
2018-08-16T18:03:44.683Z,100135.20
2018-08-16T18:06:15.593Z,100132.21
2018-08-16T18:08:46.400Z,100135.95
2018-08-16T18:11:22.451Z,100133.08
2018-08-16T18:13:53.470Z,100137.68
2018-08-16T18:16:24.305Z,100140.93
2018-08-16T18:18:55.308Z,100140.45
2018-08-16T18:21:26.455Z,100142.88
2018-08-16T18:23:57.385Z,100138.86
2018-08-16T18:26:28.633Z,100139.86
2018-08-16T18:28:59.459Z,100149.16
2018-08-16T18:31:30.304Z,100152.73
2018-08-16T18:34:01.184Z,100150.87
2018-08-16T18:36:31.924Z,100153.05
2018-08-16T18:39:02.609Z,100149.02
2018-08-16T18:41:33.273Z,100155.41
2018-08-16T18:44:04.037Z,100156.55
2018-08-16T18:46:34.828Z,100149.45
2018-08-16T18:49:05.540Z,100151.61
2018-08-16T18:51:36.327Z,100150.56
2018-08-16T18:54:07.070Z,100160.67
2018-08-16T18:56:37.780Z,100159.45
2018-08-16T18:59:08.516Z,100160.25
2018-08-16T19:01:39.270Z,100162.56
2018-08-16T19:04:10.124Z,100166.23
2018-08-16T19:06:40.799Z,100167.03
2018-08-16T19:09:11.586Z,100166.16
2018-08-16T19:11:42.309Z,100173.70
2018-08-16T19:14:13.118Z,100168.13
2018-08-16T19:16:43.815Z,100173.25
2018-08-16T19:19:14.590Z,100176.88
2018-08-16T19:21:45.449Z,100179.91
2018-08-16T19:24:16.290Z,100179.64
2018-08-16T19:26:47.205Z,100183.16
2018-08-16T19:29:17.937Z,100185.97
2018-08-16T19:31:48.857Z,100184.26
2018-08-16T19:34:19.661Z,100185.87
2018-08-16T19:36:50.574Z,100179.27
2018-08-16T19:39:21.300Z,100180.22
2018-08-16T19:41:52.163Z,100181.01
2018-08-16T19:44:22.969Z,100172.05
2018-08-16T19:46:53.803Z,100178.72
2018-08-16T19:49:24.616Z,100175.47
2018-08-16T19:51:55.980Z,100183.55
2018-08-16T19:54:26.682Z,100184.49
2018-08-16T19:56:57.558Z,100189.11
2018-08-16T19:59:28.336Z,100183.02
2018-08-16T20:01:59.858Z,100177.41
2018-08-16T20:04:31.919Z,100185.10
2018-08-16T20:07:03.413Z,100183.59
2018-08-16T20:09:34.223Z,100182.83
2018-08-16T20:12:05.173Z,100182.59
2018-08-16T20:14:35.884Z,100184.71
2018-08-16T20:17:06.749Z,100188.91
2018-08-16T20:19:37.567Z,100189.35
2018-08-16T20:22:15.887Z,100198.39
2018-08-16T20:24:47.325Z,100195.46
2018-08-16T20:27:18.843Z,100190.00
2018-08-16T20:29:49.627Z,100189.43
2018-08-16T20:32:20.382Z,100194.22
2018-08-16T20:34:51.092Z,100200.37
2018-08-16T20:37:21.812Z,100199.95
2018-08-16T20:39:52.655Z,100208.94
2018-08-16T20:42:23.404Z,100211.09
2018-08-16T20:44:54.129Z,100206.86
2018-08-16T20:47:24.927Z,100213.67
2018-08-16T20:49:55.696Z,100218.30
2018-08-16T20:52:26.580Z,100212.30
2018-08-16T20:54:57.272Z,100215.37
2018-08-16T20:57:27.981Z,100210.59
2018-08-16T20:59:58.648Z,100219.23
2018-08-16T21:02:29.416Z,100212.25
2018-08-16T21:05:00.083Z,100221.06
2018-08-16T21:07:30.866Z,100219.30
2018-08-16T21:10:01.614Z,100219.61
2018-08-16T21:12:32.319Z,100219.67
2018-08-16T21:15:03.066Z,100222.14
2018-08-16T21:17:33.744Z,100221.87
2018-08-16T21:20:04.981Z,100233.39
2018-08-16T21:22:35.675Z,100228.56
2018-08-16T21:25:07.537Z,100237.95
2018-08-16T21:27:38.311Z,100231.89
2018-08-16T21:30:09.058Z,100230.97
2018-08-16T21:32:39.773Z,100233.00
2018-08-16T21:35:10.557Z,100226.87
2018-08-16T21:37:41.310Z,100228.27
2018-08-16T21:40:12.060Z,100234.67
2018-08-16T21:42:42.771Z,100235.59
2018-08-16T21:45:13.485Z,100235.20
2018-08-16T21:47:44.194Z,100229.47
2018-08-16T21:50:15.010Z,100234.34
2018-08-16T21:52:45.746Z,100230.86
2018-08-16T21:55:16.475Z,100223.67
2018-08-16T21:57:47.183Z,100230.20
2018-08-16T22:00:52.883Z,100231.83
2018-08-16T22:03:27.634Z,100233.59
2018-08-16T22:06:09.220Z,100233.00
2018-08-16T22:08:50.428Z,100221.39
2018-08-16T22:11:21.146Z,100231.88
2018-08-16T22:13:51.955Z,100223.77
2018-08-16T22:16:22.744Z,100222.28
2018-08-16T22:18:53.551Z,100217.41
2018-08-16T22:21:24.393Z,100223.80
2018-08-16T22:23:55.173Z,100219.08
2018-08-16T22:26:25.963Z,100217.52
2018-08-16T22:28:56.704Z,100222.75
2018-08-16T22:31:27.557Z,100217.89
2018-08-16T22:33:58.390Z,100219.97
2018-08-16T22:36:29.100Z,100222.16
2018-08-16T22:38:59.844Z,100218.47
2018-08-16T22:41:30.549Z,100225.94
2018-08-16T22:44:01.315Z,100225.16
2018-08-16T22:46:32.040Z,100227.36
2018-08-16T22:49:02.743Z,100223.66
2018-08-16T22:51:33.510Z,100228.34
2018-08-16T22:54:04.387Z,100229.59
2018-08-16T22:56:35.135Z,100229.84
2018-08-16T22:59:06.026Z,100230.84
2018-08-16T23:01:36.780Z,100227.94
2018-08-16T23:04:07.542Z,100227.23
2018-08-16T23:06:38.277Z,100225.52
2018-08-16T23:09:09.214Z,100222.67
2018-08-16T23:11:39.975Z,100223.78
2018-08-16T23:14:10.684Z,100219.82
2018-08-16T23:16:41.444Z,100227.70
2018-08-16T23:19:12.268Z,100221.25
2018-08-16T23:21:42.975Z,100220.93
2018-08-16T23:24:13.778Z,100217.40
2018-08-16T23:26:44.523Z,100214.58
2018-08-16T23:29:15.300Z,100213.47
2018-08-16T23:31:45.998Z,100215.69
2018-08-16T23:34:16.825Z,100210.50
2018-08-16T23:36:47.667Z,100205.26
2018-08-16T23:39:18.462Z,100204.41
2018-08-16T23:41:49.205Z,100201.84
2018-08-16T23:44:20.039Z,100205.15
2018-08-16T23:46:50.796Z,100200.99
2018-08-16T23:49:21.588Z,100202.01
2018-08-16T23:51:52.324Z,100196.57
2018-08-16T23:54:23.126Z,100200.21
2018-08-16T23:56:53.855Z,100195.00
2018-08-16T23:59:24.672Z,100189.56
